sensor_id;sensor_type;location;lat;lon;timestamp;P1;durP1;ratioP1;P2;durP2;ratioP2
78458;SDS011;67753;42.684;23.330;2023-06-19T00:01:32;8.05;;;5.18;;
78458;SDS011;67753;42.684;23.330;2023-06-19T00:03:34;5.88;;;5.20;;
78458;SDS011;67753;42.684;23.330;2023-06-19T00:05:36;5.82;;;5.32;;
78458;SDS011;67753;42.684;23.330;2023-06-19T00:07:38;6.35;;;5.85;;
78458;SDS011;67753;42.684;23.330;2023-06-19T00:09:40;5.65;;;5.25;;
78458;SDS011;67753;42.684;23.330;2023-06-19T00:11:42;5.63;;;5.22;;
78458;SDS011;67753;42.684;23.330;2023-06-19T00:13:45;5.05;;;4.65;;
78458;SDS011;67753;42.684;23.330;2023-06-19T00:15:47;6.00;;;5.40;;
78458;SDS011;67753;42.684;23.330;2023-06-19T00:17:49;5.45;;;4.88;;
78458;SDS011;67753;42.684;23.330;2023-06-19T00:19:51;5.20;;;4.70;;
78458;SDS011;67753;42.684;23.330;2023-06-19T00:21:53;5.50;;;5.10;;
78458;SDS011;67753;42.684;23.330;2023-06-19T00:23:57;5.32;;;4.93;;
78458;SDS011;67753;42.684;23.330;2023-06-19T00:25:59;5.70;;;5.30;;
78458;SDS011;67753;42.684;23.330;2023-06-19T00:28:01;5.50;;;5.05;;
78458;SDS011;67753;42.684;23.330;2023-06-19T00:30:06;6.00;;;5.50;;
78458;SDS011;67753;42.684;23.330;2023-06-19T00:32:09;5.68;;;5.22;;
78458;SDS011;67753;42.684;23.330;2023-06-19T00:34:11;5.90;;;5.40;;
78458;SDS011;67753;42.684;23.330;2023-06-19T00:36:14;4.85;;;4.45;;
78458;SDS011;67753;42.684;23.330;2023-06-19T00:38:20;6.47;;;5.20;;
78458;SDS011;67753;42.684;23.330;2023-06-19T00:40:25;5.55;;;5.15;;
78458;SDS011;67753;42.684;23.330;2023-06-19T00:42:28;5.65;;;5.05;;
78458;SDS011;67753;42.684;23.330;2023-06-19T00:44:30;5.07;;;4.57;;
78458;SDS011;67753;42.684;23.330;2023-06-19T00:46:33;5.97;;;5.50;;
78458;SDS011;67753;42.684;23.330;2023-06-19T00:48:38;5.20;;;4.80;;
78458;SDS011;67753;42.684;23.330;2023-06-19T00:50:41;5.53;;;5.03;;
78458;SDS011;67753;42.684;23.330;2023-06-19T00:52:44;7.55;;;5.30;;
78458;SDS011;67753;42.684;23.330;2023-06-19T00:54:46;5.32;;;4.93;;
78458;SDS011;67753;42.684;23.330;2023-06-19T00:56:48;5.60;;;4.97;;
78458;SDS011;67753;42.684;23.330;2023-06-19T00:58:50;5.50;;;5.00;;
78458;SDS011;67753;42.684;23.330;2023-06-19T01:00:53;4.90;;;4.50;;
78458;SDS011;67753;42.684;23.330;2023-06-19T01:02:58;5.63;;;5.13;;
78458;SDS011;67753;42.684;23.330;2023-06-19T01:05:00;5.55;;;5.05;;
78458;SDS011;67753;42.684;23.330;2023-06-19T01:07:02;5.22;;;4.82;;
78458;SDS011;67753;42.684;23.330;2023-06-19T01:09:11;5.93;;;5.20;;
78458;SDS011;67753;42.684;23.330;2023-06-19T01:11:17;4.75;;;4.45;;
78458;SDS011;67753;42.684;23.330;2023-06-19T01:13:24;5.57;;;5.07;;
78458;SDS011;67753;42.684;23.330;2023-06-19T01:15:30;5.97;;;5.43;;
78458;SDS011;67753;42.684;23.330;2023-06-19T01:17:33;4.93;;;4.53;;
78458;SDS011;67753;42.684;23.330;2023-06-19T01:19:38;5.28;;;4.78;;
78458;SDS011;67753;42.684;23.330;2023-06-19T01:21:40;5.80;;;5.30;;
78458;SDS011;67753;42.684;23.330;2023-06-19T01:23:44;5.43;;;5.03;;
78458;SDS011;67753;42.684;23.330;2023-06-19T01:25:47;5.60;;;5.20;;
78458;SDS011;67753;42.684;23.330;2023-06-19T01:27:49;6.40;;;5.80;;
78458;SDS011;67753;42.684;23.330;2023-06-19T01:29:52;6.43;;;5.93;;
78458;SDS011;67753;42.684;23.330;2023-06-19T01:31:57;6.00;;;5.50;;
78458;SDS011;67753;42.684;23.330;2023-06-19T01:34:05;6.10;;;5.60;;
78458;SDS011;67753;42.684;23.330;2023-06-19T01:36:09;5.65;;;5.25;;
78458;SDS011;67753;42.684;23.330;2023-06-19T01:38:12;6.78;;;6.07;;
78458;SDS011;67753;42.684;23.330;2023-06-19T01:40:16;5.90;;;5.20;;
78458;SDS011;67753;42.684;23.330;2023-06-19T01:42:21;6.40;;;5.78;;
78458;SDS011;67753;42.684;23.330;2023-06-19T01:44:24;6.40;;;5.80;;
78458;SDS011;67753;42.684;23.330;2023-06-19T01:46:26;6.25;;;5.75;;
78458;SDS011;67753;42.684;23.330;2023-06-19T01:48:28;7.25;;;6.55;;
78458;SDS011;67753;42.684;23.330;2023-06-19T01:50:30;6.57;;;5.97;;
78458;SDS011;67753;42.684;23.330;2023-06-19T01:52:32;5.93;;;5.45;;
78458;SDS011;67753;42.684;23.330;2023-06-19T01:54:34;5.93;;;5.47;;
78458;SDS011;67753;42.684;23.330;2023-06-19T01:56:37;6.55;;;6.03;;
78458;SDS011;67753;42.684;23.330;2023-06-19T01:58:40;6.45;;;5.90;;
78458;SDS011;67753;42.684;23.330;2023-06-19T02:00:42;6.78;;;6.10;;
78458;SDS011;67753;42.684;23.330;2023-06-19T02:02:43;9.65;;;5.95;;
78458;SDS011;67753;42.684;23.330;2023-06-19T02:04:45;6.82;;;6.32;;
78458;SDS011;67753;42.684;23.330;2023-06-19T02:06:47;6.97;;;6.38;;
78458;SDS011;67753;42.684;23.330;2023-06-19T02:08:48;5.97;;;5.47;;
78458;SDS011;67753;42.684;23.330;2023-06-19T02:10:50;6.40;;;5.75;;
78458;SDS011;67753;42.684;23.330;2023-06-19T02:12:53;6.70;;;6.10;;
78458;SDS011;67753;42.684;23.330;2023-06-19T02:14:55;7.03;;;5.97;;
78458;SDS011;67753;42.684;23.330;2023-06-19T02:16:57;6.40;;;5.80;;
78458;SDS011;67753;42.684;23.330;2023-06-19T02:18:58;7.50;;;6.05;;
78458;SDS011;67753;42.684;23.330;2023-06-19T02:21:00;6.72;;;6.07;;
78458;SDS011;67753;42.684;23.330;2023-06-19T02:23:02;6.78;;;6.15;;
78458;SDS011;67753;42.684;23.330;2023-06-19T02:25:04;7.70;;;6.90;;
78458;SDS011;67753;42.684;23.330;2023-06-19T02:27:09;7.90;;;6.72;;
78458;SDS011;67753;42.684;23.330;2023-06-19T02:29:12;6.72;;;6.05;;
78458;SDS011;67753;42.684;23.330;2023-06-19T02:31:14;7.53;;;6.85;;
78458;SDS011;67753;42.684;23.330;2023-06-19T02:33:16;7.15;;;6.57;;
78458;SDS011;67753;42.684;23.330;2023-06-19T02:35:18;8.38;;;6.10;;
78458;SDS011;67753;42.684;23.330;2023-06-19T02:37:20;7.10;;;6.43;;
78458;SDS011;67753;42.684;23.330;2023-06-19T02:39:22;7.38;;;6.65;;
78458;SDS011;67753;42.684;23.330;2023-06-19T02:41:25;7.55;;;6.85;;
78458;SDS011;67753;42.684;23.330;2023-06-19T02:43:27;9.98;;;7.43;;
78458;SDS011;67753;42.684;23.330;2023-06-19T02:45:30;7.30;;;6.60;;
78458;SDS011;67753;42.684;23.330;2023-06-19T02:47:32;7.90;;;7.10;;
78458;SDS011;67753;42.684;23.330;2023-06-19T02:49:35;10.80;;;7.63;;
78458;SDS011;67753;42.684;23.330;2023-06-19T02:51:37;9.95;;;7.70;;
78458;SDS011;67753;42.684;23.330;2023-06-19T02:53:39;9.60;;;8.05;;
78458;SDS011;67753;42.684;23.330;2023-06-19T02:55:41;7.72;;;7.00;;
78458;SDS011;67753;42.684;23.330;2023-06-19T02:57:43;8.55;;;7.25;;
78458;SDS011;67753;42.684;23.330;2023-06-19T02:59:46;7.18;;;6.53;;
78458;SDS011;67753;42.684;23.330;2023-06-19T03:01:49;8.48;;;7.68;;
78458;SDS011;67753;42.684;23.330;2023-06-19T03:03:51;7.65;;;6.97;;
78458;SDS011;67753;42.684;23.330;2023-06-19T03:05:53;7.53;;;6.93;;
78458;SDS011;67753;42.684;23.330;2023-06-19T03:07:55;7.38;;;6.50;;
78458;SDS011;67753;42.684;23.330;2023-06-19T03:09:57;9.60;;;8.35;;
78458;SDS011;67753;42.684;23.330;2023-06-19T03:11:59;8.85;;;8.07;;
78458;SDS011;67753;42.684;23.330;2023-06-19T03:14:01;8.48;;;7.70;;
78458;SDS011;67753;42.684;23.330;2023-06-19T03:16:07;10.02;;;9.13;;
78458;SDS011;67753;42.684;23.330;2023-06-19T03:18:10;8.73;;;7.95;;
78458;SDS011;67753;42.684;23.330;2023-06-19T03:20:13;9.00;;;8.20;;
78458;SDS011;67753;42.684;23.330;2023-06-19T03:22:15;9.13;;;7.82;;
78458;SDS011;67753;42.684;23.330;2023-06-19T03:24:17;8.68;;;7.78;;
78458;SDS011;67753;42.684;23.330;2023-06-19T03:26:20;7.72;;;7.10;;
78458;SDS011;67753;42.684;23.330;2023-06-19T03:28:22;8.52;;;7.63;;
78458;SDS011;67753;42.684;23.330;2023-06-19T03:30:24;7.47;;;6.95;;
78458;SDS011;67753;42.684;23.330;2023-06-19T03:32:26;8.23;;;7.43;;
78458;SDS011;67753;42.684;23.330;2023-06-19T03:34:29;8.25;;;7.38;;
78458;SDS011;67753;42.684;23.330;2023-06-19T03:36:30;7.78;;;7.07;;
78458;SDS011;67753;42.684;23.330;2023-06-19T03:38:32;8.82;;;8.13;;
78458;SDS011;67753;42.684;23.330;2023-06-19T03:40:35;8.80;;;8.00;;
78458;SDS011;67753;42.684;23.330;2023-06-19T03:42:37;10.02;;;7.72;;
78458;SDS011;67753;42.684;23.330;2023-06-19T03:44:38;9.10;;;8.20;;
78458;SDS011;67753;42.684;23.330;2023-06-19T03:46:40;8.82;;;8.02;;
78458;SDS011;67753;42.684;23.330;2023-06-19T03:48:43;10.82;;;9.75;;
78458;SDS011;67753;42.684;23.330;2023-06-19T03:50:46;11.13;;;9.02;;
78458;SDS011;67753;42.684;23.330;2023-06-19T03:52:47;11.98;;;8.88;;
78458;SDS011;67753;42.684;23.330;2023-06-19T03:54:49;8.68;;;7.88;;
78458;SDS011;67753;42.684;23.330;2023-06-19T03:56:51;8.73;;;8.02;;
78458;SDS011;67753;42.684;23.330;2023-06-19T03:58:53;11.27;;;8.40;;
78458;SDS011;67753;42.684;23.330;2023-06-19T04:00:55;8.68;;;7.78;;
78458;SDS011;67753;42.684;23.330;2023-06-19T04:02:57;8.43;;;7.50;;
78458;SDS011;67753;42.684;23.330;2023-06-19T04:04:58;8.30;;;7.50;;
78458;SDS011;67753;42.684;23.330;2023-06-19T04:07:02;7.95;;;7.32;;
78458;SDS011;67753;42.684;23.330;2023-06-19T04:09:04;7.03;;;6.50;;
78458;SDS011;67753;42.684;23.330;2023-06-19T04:11:06;6.97;;;6.38;;
78458;SDS011;67753;42.684;23.330;2023-06-19T04:13:08;7.32;;;6.68;;
78458;SDS011;67753;42.684;23.330;2023-06-19T04:15:10;6.93;;;6.38;;
78458;SDS011;67753;42.684;23.330;2023-06-19T04:17:12;6.88;;;6.20;;
78458;SDS011;67753;42.684;23.330;2023-06-19T04:19:15;6.47;;;5.90;;
78458;SDS011;67753;42.684;23.330;2023-06-19T04:21:17;7.60;;;6.90;;
78458;SDS011;67753;42.684;23.330;2023-06-19T04:23:20;6.53;;;5.93;;
78458;SDS011;67753;42.684;23.330;2023-06-19T04:25:22;6.57;;;6.07;;
78458;SDS011;67753;42.684;23.330;2023-06-19T04:27:24;6.53;;;5.93;;
78458;SDS011;67753;42.684;23.330;2023-06-19T04:29:26;6.82;;;5.82;;
78458;SDS011;67753;42.684;23.330;2023-06-19T04:31:31;6.28;;;5.78;;
78458;SDS011;67753;42.684;23.330;2023-06-19T04:33:33;7.78;;;6.43;;
78458;SDS011;67753;42.684;23.330;2023-06-19T04:35:35;6.68;;;6.07;;
78458;SDS011;67753;42.684;23.330;2023-06-19T04:37:40;7.60;;;6.80;;
78458;SDS011;67753;42.684;23.330;2023-06-19T04:39:43;13.05;;;6.55;;
78458;SDS011;67753;42.684;23.330;2023-06-19T04:41:45;6.72;;;6.13;;
78458;SDS011;67753;42.684;23.330;2023-06-19T04:43:47;7.18;;;6.47;;
78458;SDS011;67753;42.684;23.330;2023-06-19T04:45:49;7.35;;;6.65;;
78458;SDS011;67753;42.684;23.330;2023-06-19T04:47:51;8.35;;;6.70;;
78458;SDS011;67753;42.684;23.330;2023-06-19T04:49:53;8.38;;;6.60;;
78458;SDS011;67753;42.684;23.330;2023-06-19T04:51:54;5.97;;;5.47;;
78458;SDS011;67753;42.684;23.330;2023-06-19T04:53:56;7.28;;;6.60;;
78458;SDS011;67753;42.684;23.330;2023-06-19T04:56:00;12.75;;;7.18;;
78458;SDS011;67753;42.684;23.330;2023-06-19T04:58:01;7.35;;;5.72;;
78458;SDS011;67753;42.684;23.330;2023-06-19T05:00:04;5.72;;;5.32;;
78458;SDS011;67753;42.684;23.330;2023-06-19T05:02:07;6.95;;;6.28;;
78458;SDS011;67753;42.684;23.330;2023-06-19T05:04:09;6.15;;;5.55;;
78458;SDS011;67753;42.684;23.330;2023-06-19T05:06:11;6.40;;;5.93;;
78458;SDS011;67753;42.684;23.330;2023-06-19T05:08:13;6.78;;;5.25;;
78458;SDS011;67753;42.684;23.330;2023-06-19T05:10:15;6.03;;;5.53;;
78458;SDS011;67753;42.684;23.330;2023-06-19T05:12:18;7.05;;;6.20;;
78458;SDS011;67753;42.684;23.330;2023-06-19T05:14:20;7.72;;;5.70;;
78458;SDS011;67753;42.684;23.330;2023-06-19T05:16:22;6.22;;;5.47;;
78458;SDS011;67753;42.684;23.330;2023-06-19T05:18:25;6.20;;;5.60;;
78458;SDS011;67753;42.684;23.330;2023-06-19T05:20:27;5.75;;;5.35;;
78458;SDS011;67753;42.684;23.330;2023-06-19T05:22:28;5.75;;;5.07;;
78458;SDS011;67753;42.684;23.330;2023-06-19T05:24:32;5.93;;;5.43;;
78458;SDS011;67753;42.684;23.330;2023-06-19T05:26:34;6.70;;;6.00;;
78458;SDS011;67753;42.684;23.330;2023-06-19T05:28:37;6.57;;;5.97;;
78458;SDS011;67753;42.684;23.330;2023-06-19T05:30:39;6.35;;;5.72;;
78458;SDS011;67753;42.684;23.330;2023-06-19T05:32:41;5.63;;;5.22;;
78458;SDS011;67753;42.684;23.330;2023-06-19T05:34:43;7.00;;;5.55;;
78458;SDS011;67753;42.684;23.330;2023-06-19T05:36:45;8.40;;;5.43;;
78458;SDS011;67753;42.684;23.330;2023-06-19T05:38:47;5.28;;;4.88;;
78458;SDS011;67753;42.684;23.330;2023-06-19T05:40:50;5.90;;;5.38;;
78458;SDS011;67753;42.684;23.330;2023-06-19T05:42:51;5.75;;;4.93;;
78458;SDS011;67753;42.684;23.330;2023-06-19T05:44:58;6.03;;;5.45;;
78458;SDS011;67753;42.684;23.330;2023-06-19T05:47:00;5.57;;;5.18;;
78458;SDS011;67753;42.684;23.330;2023-06-19T05:49:02;5.85;;;5.28;;
78458;SDS011;67753;42.684;23.330;2023-06-19T05:51:05;6.30;;;5.22;;
78458;SDS011;67753;42.684;23.330;2023-06-19T05:53:06;5.68;;;5.25;;
78458;SDS011;67753;42.684;23.330;2023-06-19T05:55:08;6.13;;;5.60;;
78458;SDS011;67753;42.684;23.330;2023-06-19T05:57:10;5.65;;;5.15;;
78458;SDS011;67753;42.684;23.330;2023-06-19T05:59:12;6.05;;;5.55;;
78458;SDS011;67753;42.684;23.330;2023-06-19T06:01:16;6.25;;;5.65;;
78458;SDS011;67753;42.684;23.330;2023-06-19T06:03:18;5.72;;;5.20;;
78458;SDS011;67753;42.684;23.330;2023-06-19T06:05:20;6.00;;;5.15;;
78458;SDS011;67753;42.684;23.330;2023-06-19T06:07:23;5.95;;;5.45;;
78458;SDS011;67753;42.684;23.330;2023-06-19T06:09:24;5.70;;;5.15;;
78458;SDS011;67753;42.684;23.330;2023-06-19T06:11:27;5.40;;;4.90;;
78458;SDS011;67753;42.684;23.330;2023-06-19T06:13:28;8.02;;;5.88;;
78458;SDS011;67753;42.684;23.330;2023-06-19T06:15:30;6.18;;;5.63;;
78458;SDS011;67753;42.684;23.330;2023-06-19T06:17:33;5.88;;;5.28;;
78458;SDS011;67753;42.684;23.330;2023-06-19T06:19:35;6.03;;;5.00;;
78458;SDS011;67753;42.684;23.330;2023-06-19T06:21:38;5.72;;;5.22;;
78458;SDS011;67753;42.684;23.330;2023-06-19T06:23:41;5.22;;;4.82;;
78458;SDS011;67753;42.684;23.330;2023-06-19T06:25:44;5.85;;;5.13;;
78458;SDS011;67753;42.684;23.330;2023-06-19T06:27:47;4.85;;;4.55;;
78458;SDS011;67753;42.684;23.330;2023-06-19T06:29:49;5.55;;;5.00;;
78458;SDS011;67753;42.684;23.330;2023-06-19T06:31:51;5.97;;;5.53;;
78458;SDS011;67753;42.684;23.330;2023-06-19T06:33:54;5.70;;;5.20;;
78458;SDS011;67753;42.684;23.330;2023-06-19T06:35:57;62.58;;;12.10;;
78458;SDS011;67753;42.684;23.330;2023-06-19T06:37:59;9.65;;;6.03;;
78458;SDS011;67753;42.684;23.330;2023-06-19T06:40:01;7.72;;;5.18;;
78458;SDS011;67753;42.684;23.330;2023-06-19T06:42:05;6.43;;;5.03;;
78458;SDS011;67753;42.684;23.330;2023-06-19T06:44:07;57.90;;;10.35;;
78458;SDS011;67753;42.684;23.330;2023-06-19T06:46:11;5.78;;;5.13;;
78458;SDS011;67753;42.684;23.330;2023-06-19T06:48:12;5.50;;;5.00;;
78458;SDS011;67753;42.684;23.330;2023-06-19T06:50:17;4.95;;;4.45;;
78458;SDS011;67753;42.684;23.330;2023-06-19T06:52:19;9.98;;;5.85;;
78458;SDS011;67753;42.684;23.330;2023-06-19T06:54:21;7.75;;;5.22;;
78458;SDS011;67753;42.684;23.330;2023-06-19T06:56:22;19.90;;;7.68;;
78458;SDS011;67753;42.684;23.330;2023-06-19T06:58:24;18.67;;;10.50;;
78458;SDS011;67753;42.684;23.330;2023-06-19T07:00:26;14.07;;;6.30;;
78458;SDS011;67753;42.684;23.330;2023-06-19T07:02:29;7.32;;;5.40;;
78458;SDS011;67753;42.684;23.330;2023-06-19T07:04:31;6.95;;;5.63;;
78458;SDS011;67753;42.684;23.330;2023-06-19T07:06:34;12.63;;;6.25;;
78458;SDS011;67753;42.684;23.330;2023-06-19T07:08:36;26.00;;;8.38;;
78458;SDS011;67753;42.684;23.330;2023-06-19T07:10:40;10.45;;;5.43;;
78458;SDS011;67753;42.684;23.330;2023-06-19T07:12:46;15.70;;;6.68;;
78458;SDS011;67753;42.684;23.330;2023-06-19T07:14:48;11.55;;;6.55;;
78458;SDS011;67753;42.684;23.330;2023-06-19T07:16:50;8.27;;;5.18;;
78458;SDS011;67753;42.684;23.330;2023-06-19T07:18:52;5.80;;;5.30;;
78458;SDS011;67753;42.684;23.330;2023-06-19T07:20:54;77.80;;;14.73;;
78458;SDS011;67753;42.684;23.330;2023-06-19T07:22:57;61.60;;;13.90;;
78458;SDS011;67753;42.684;23.330;2023-06-19T07:25:00;10.77;;;6.28;;
78458;SDS011;67753;42.684;23.330;2023-06-19T07:27:02;8.30;;;5.90;;
78458;SDS011;67753;42.684;23.330;2023-06-19T07:29:04;5.90;;;5.30;;
78458;SDS011;67753;42.684;23.330;2023-06-19T07:31:05;6.00;;;5.50;;
78458;SDS011;67753;42.684;23.330;2023-06-19T07:33:08;11.35;;;6.47;;
78458;SDS011;67753;42.684;23.330;2023-06-19T07:35:09;9.40;;;5.93;;
78458;SDS011;67753;42.684;23.330;2023-06-19T07:37:12;8.70;;;5.15;;
78458;SDS011;67753;42.684;23.330;2023-06-19T07:39:19;5.25;;;4.75;;
78458;SDS011;67753;42.684;23.330;2023-06-19T07:41:21;4.65;;;4.35;;
78458;SDS011;67753;42.684;23.330;2023-06-19T07:43:23;4.82;;;4.43;;
78458;SDS011;67753;42.684;23.330;2023-06-19T07:45:25;4.68;;;4.38;;
78458;SDS011;67753;42.684;23.330;2023-06-19T07:47:27;4.47;;;4.07;;
78458;SDS011;67753;42.684;23.330;2023-06-19T07:49:29;4.97;;;4.50;;
78458;SDS011;67753;42.684;23.330;2023-06-19T07:51:30;5.18;;;4.70;;
78458;SDS011;67753;42.684;23.330;2023-06-19T07:53:32;5.30;;;4.55;;
78458;SDS011;67753;42.684;23.330;2023-06-19T07:55:35;5.40;;;4.90;;
78458;SDS011;67753;42.684;23.330;2023-06-19T07:57:37;4.80;;;4.40;;
78458;SDS011;67753;42.684;23.330;2023-06-19T07:59:39;6.90;;;5.72;;
78458;SDS011;67753;42.684;23.330;2023-06-19T08:01:41;8.40;;;7.50;;
78458;SDS011;67753;42.684;23.330;2023-06-19T08:03:43;5.05;;;4.63;;
78458;SDS011;67753;42.684;23.330;2023-06-19T08:05:45;5.35;;;4.85;;
78458;SDS011;67753;42.684;23.330;2023-06-19T08:07:46;4.82;;;4.43;;
78458;SDS011;67753;42.684;23.330;2023-06-19T08:09:48;4.95;;;4.53;;
78458;SDS011;67753;42.684;23.330;2023-06-19T08:11:51;5.30;;;4.80;;
78458;SDS011;67753;42.684;23.330;2023-06-19T08:13:53;5.28;;;4.88;;
78458;SDS011;67753;42.684;23.330;2023-06-19T08:15:55;4.68;;;4.38;;
78458;SDS011;67753;42.684;23.330;2023-06-19T08:17:57;4.78;;;4.38;;
78458;SDS011;67753;42.684;23.330;2023-06-19T08:19:59;6.05;;;5.00;;
78458;SDS011;67753;42.684;23.330;2023-06-19T08:22:01;5.07;;;4.53;;
78458;SDS011;67753;42.684;23.330;2023-06-19T08:24:02;5.85;;;5.30;;
78458;SDS011;67753;42.684;23.330;2023-06-19T08:26:04;8.45;;;5.15;;
78458;SDS011;67753;42.684;23.330;2023-06-19T08:28:09;5.28;;;4.78;;
78458;SDS011;67753;42.684;23.330;2023-06-19T08:30:11;4.13;;;3.83;;
78458;SDS011;67753;42.684;23.330;2023-06-19T08:32:13;5.97;;;4.40;;
78458;SDS011;67753;42.684;23.330;2023-06-19T08:34:15;4.72;;;4.32;;
78458;SDS011;67753;42.684;23.330;2023-06-19T08:36:17;5.68;;;5.07;;
78458;SDS011;67753;42.684;23.330;2023-06-19T08:38:18;6.30;;;4.97;;
78458;SDS011;67753;42.684;23.330;2023-06-19T08:40:21;4.45;;;4.03;;
78458;SDS011;67753;42.684;23.330;2023-06-19T08:42:23;7.13;;;5.05;;
78458;SDS011;67753;42.684;23.330;2023-06-19T08:44:26;5.50;;;4.32;;
78458;SDS011;67753;42.684;23.330;2023-06-19T08:46:30;5.38;;;4.40;;
78458;SDS011;67753;42.684;23.330;2023-06-19T08:48:34;4.50;;;4.20;;
78458;SDS011;67753;42.684;23.330;2023-06-19T08:50:36;5.85;;;4.03;;
78458;SDS011;67753;42.684;23.330;2023-06-19T08:52:38;4.63;;;4.20;;
78458;SDS011;67753;42.684;23.330;2023-06-19T08:54:40;4.50;;;4.10;;
78458;SDS011;67753;42.684;23.330;2023-06-19T08:56:44;5.05;;;4.65;;
78458;SDS011;67753;42.684;23.330;2023-06-19T08:58:48;4.70;;;4.30;;
78458;SDS011;67753;42.684;23.330;2023-06-19T09:00:51;4.53;;;4.15;;
78458;SDS011;67753;42.684;23.330;2023-06-19T09:02:58;7.38;;;4.07;;
78458;SDS011;67753;42.684;23.330;2023-06-19T09:05:08;5.57;;;4.38;;
78458;SDS011;67753;42.684;23.330;2023-06-19T09:07:12;5.03;;;4.25;;
78458;SDS011;67753;42.684;23.330;2023-06-19T09:09:15;4.38;;;3.97;;
78458;SDS011;67753;42.684;23.330;2023-06-19T09:11:18;4.68;;;4.38;;
78458;SDS011;67753;42.684;23.330;2023-06-19T09:13:21;4.00;;;3.72;;
78458;SDS011;67753;42.684;23.330;2023-06-19T09:15:23;4.60;;;4.20;;
78458;SDS011;67753;42.684;23.330;2023-06-19T09:17:29;4.10;;;3.80;;
78458;SDS011;67753;42.684;23.330;2023-06-19T09:19:31;4.68;;;4.28;;
78458;SDS011;67753;42.684;23.330;2023-06-19T09:21:35;5.53;;;3.58;;
78458;SDS011;67753;42.684;23.330;2023-06-19T09:23:39;4.70;;;4.10;;
78458;SDS011;67753;42.684;23.330;2023-06-19T09:25:44;4.90;;;4.50;;
78458;SDS011;67753;42.684;23.330;2023-06-19T09:27:47;4.60;;;4.20;;
78458;SDS011;67753;42.684;23.330;2023-06-19T09:29:49;4.18;;;3.78;;
78458;SDS011;67753;42.684;23.330;2023-06-19T09:31:52;4.63;;;4.32;;
78458;SDS011;67753;42.684;23.330;2023-06-19T09:33:57;4.82;;;4.43;;
78458;SDS011;67753;42.684;23.330;2023-06-19T09:36:00;4.75;;;3.97;;
78458;SDS011;67753;42.684;23.330;2023-06-19T09:38:03;4.13;;;3.70;;
78458;SDS011;67753;42.684;23.330;2023-06-19T09:40:06;4.32;;;3.92;;
78458;SDS011;67753;42.684;23.330;2023-06-19T09:42:11;4.97;;;4.03;;
78458;SDS011;67753;42.684;23.330;2023-06-19T09:44:16;6.45;;;4.10;;
78458;SDS011;67753;42.684;23.330;2023-06-19T09:46:22;4.30;;;4.00;;
78458;SDS011;67753;42.684;23.330;2023-06-19T09:48:29;4.88;;;4.40;;
78458;SDS011;67753;42.684;23.330;2023-06-19T09:50:36;5.50;;;4.30;;
78458;SDS011;67753;42.684;23.330;2023-06-19T09:52:40;4.90;;;4.43;;
78458;SDS011;67753;42.684;23.330;2023-06-19T09:54:43;4.60;;;4.10;;
78458;SDS011;67753;42.684;23.330;2023-06-19T09:56:45;3.65;;;3.42;;
78458;SDS011;67753;42.684;23.330;2023-06-19T09:58:52;4.15;;;3.75;;
78458;SDS011;67753;42.684;23.330;2023-06-19T10:01:00;4.10;;;3.80;;
78458;SDS011;67753;42.684;23.330;2023-06-19T10:03:04;3.97;;;3.67;;
78458;SDS011;67753;42.684;23.330;2023-06-19T10:05:13;4.55;;;4.20;;
78458;SDS011;67753;42.684;23.330;2023-06-19T10:07:16;6.50;;;3.97;;
78458;SDS011;67753;42.684;23.330;2023-06-19T10:09:22;4.40;;;3.72;;
78458;SDS011;67753;42.684;23.330;2023-06-19T10:11:24;4.72;;;4.10;;
78458;SDS011;67753;42.684;23.330;2023-06-19T10:13:33;5.15;;;4.30;;
78458;SDS011;67753;42.684;23.330;2023-06-19T10:15:39;4.38;;;3.97;;
78458;SDS011;67753;42.684;23.330;2023-06-19T10:17:43;5.07;;;4.30;;
78458;SDS011;67753;42.684;23.330;2023-06-19T10:19:50;4.95;;;4.45;;
78458;SDS011;67753;42.684;23.330;2023-06-19T10:21:53;5.43;;;4.93;;
78458;SDS011;67753;42.684;23.330;2023-06-19T10:23:57;4.88;;;4.38;;
78458;SDS011;67753;42.684;23.330;2023-06-19T10:26:00;5.93;;;4.63;;
78458;SDS011;67753;42.684;23.330;2023-06-19T10:28:02;6.60;;;6.00;;
78458;SDS011;67753;42.684;23.330;2023-06-19T10:30:06;4.75;;;4.35;;
78458;SDS011;67753;42.684;23.330;2023-06-19T10:32:18;4.30;;;3.90;;
78458;SDS011;67753;42.684;23.330;2023-06-19T10:34:20;4.57;;;4.13;;
78458;SDS011;67753;42.684;23.330;2023-06-19T10:36:23;4.68;;;4.28;;
78458;SDS011;67753;42.684;23.330;2023-06-19T10:38:26;4.85;;;4.07;;
78458;SDS011;67753;42.684;23.330;2023-06-19T10:40:29;4.03;;;3.72;;
78458;SDS011;67753;42.684;23.330;2023-06-19T10:42:32;5.72;;;3.83;;
78458;SDS011;67753;42.684;23.330;2023-06-19T10:44:34;4.45;;;4.05;;
78458;SDS011;67753;42.684;23.330;2023-06-19T10:46:37;5.00;;;4.10;;
78458;SDS011;67753;42.684;23.330;2023-06-19T10:48:40;4.68;;;4.07;;
78458;SDS011;67753;42.684;23.330;2023-06-19T10:50:43;5.53;;;4.97;;
78458;SDS011;67753;42.684;23.330;2023-06-19T10:52:45;4.05;;;3.75;;
78458;SDS011;67753;42.684;23.330;2023-06-19T10:54:52;5.45;;;4.60;;
78458;SDS011;67753;42.684;23.330;2023-06-19T10:56:56;4.85;;;4.45;;
78458;SDS011;67753;42.684;23.330;2023-06-19T10:59:03;5.40;;;4.90;;
78458;SDS011;67753;42.684;23.330;2023-06-19T11:01:09;5.15;;;4.65;;
78458;SDS011;67753;42.684;23.330;2023-06-19T11:03:12;4.78;;;4.20;;
78458;SDS011;67753;42.684;23.330;2023-06-19T11:05:14;5.68;;;4.25;;
78458;SDS011;67753;42.684;23.330;2023-06-19T11:07:16;5.45;;;4.95;;
78458;SDS011;67753;42.684;23.330;2023-06-19T11:09:17;5.10;;;4.32;;
78458;SDS011;67753;42.684;23.330;2023-06-19T11:11:19;4.53;;;4.20;;
78458;SDS011;67753;42.684;23.330;2023-06-19T11:13:22;4.88;;;4.40;;
78458;SDS011;67753;42.684;23.330;2023-06-19T11:15:29;4.80;;;4.47;;
78458;SDS011;67753;42.684;23.330;2023-06-19T11:17:31;5.32;;;4.93;;
78458;SDS011;67753;42.684;23.330;2023-06-19T11:19:34;4.82;;;4.43;;
78458;SDS011;67753;42.684;23.330;2023-06-19T11:21:38;4.25;;;3.95;;
78458;SDS011;67753;42.684;23.330;2023-06-19T11:23:40;5.28;;;4.68;;
78458;SDS011;67753;42.684;23.330;2023-06-19T11:25:49;4.80;;;4.50;;
78458;SDS011;67753;42.684;23.330;2023-06-19T11:27:51;5.15;;;4.75;;
78458;SDS011;67753;42.684;23.330;2023-06-19T11:29:56;4.72;;;4.32;;
78458;SDS011;67753;42.684;23.330;2023-06-19T11:32:06;4.95;;;4.45;;
78458;SDS011;67753;42.684;23.330;2023-06-19T11:34:10;4.80;;;4.40;;
78458;SDS011;67753;42.684;23.330;2023-06-19T11:36:13;4.72;;;4.43;;
78458;SDS011;67753;42.684;23.330;2023-06-19T11:38:18;5.22;;;4.82;;
78458;SDS011;67753;42.684;23.330;2023-06-19T11:40:21;5.68;;;5.18;;
78458;SDS011;67753;42.684;23.330;2023-06-19T11:42:24;5.82;;;5.43;;
78458;SDS011;67753;42.684;23.330;2023-06-19T11:44:27;5.57;;;5.10;;
78458;SDS011;67753;42.684;23.330;2023-06-19T11:46:30;5.25;;;4.85;;
78458;SDS011;67753;42.684;23.330;2023-06-19T11:48:35;6.40;;;4.30;;
78458;SDS011;67753;42.684;23.330;2023-06-19T11:50:38;6.25;;;4.90;;
78458;SDS011;67753;42.684;23.330;2023-06-19T11:52:41;5.05;;;4.63;;
78458;SDS011;67753;42.684;23.330;2023-06-19T11:54:45;4.85;;;4.43;;
78458;SDS011;67753;42.684;23.330;2023-06-19T11:56:46;5.82;;;5.25;;
78458;SDS011;67753;42.684;23.330;2023-06-19T11:58:49;5.93;;;5.22;;
78458;SDS011;67753;42.684;23.330;2023-06-19T12:00:52;5.10;;;4.60;;
78458;SDS011;67753;42.684;23.330;2023-06-19T12:02:57;5.13;;;4.80;;
78458;SDS011;67753;42.684;23.330;2023-06-19T12:04:59;4.70;;;4.30;;
78458;SDS011;67753;42.684;23.330;2023-06-19T12:07:01;5.35;;;4.95;;
78458;SDS011;67753;42.684;23.330;2023-06-19T12:09:04;5.30;;;4.90;;